createdAt,value
2018-12-12T11:08:37.396Z,2.70
2018-12-12T11:11:11.868Z,2.50
2018-12-12T11:13:54.797Z,2.03
2018-12-12T11:16:23.676Z,2.70
2018-12-12T11:18:52.633Z,2.30
2018-12-12T11:21:21.302Z,2.10
2018-12-12T11:23:50.270Z,2.13
2018-12-12T11:26:19.144Z,2.33
2018-12-12T11:28:47.811Z,2.10
2018-12-12T11:31:16.703Z,2.67
2018-12-12T11:33:50.497Z,2.03
2018-12-12T11:36:16.290Z,2.10
2018-12-12T11:38:45.332Z,2.00
2018-12-12T11:41:13.990Z,2.10
2018-12-12T11:43:42.679Z,1.93
2018-12-12T11:46:11.354Z,1.80
2018-12-12T11:48:40.027Z,2.00
2018-12-12T11:51:08.685Z,1.53
2018-12-12T11:53:37.604Z,1.50
2018-12-12T12:07:56.793Z,1.40
2018-12-12T12:10:31.216Z,1.33
2018-12-12T12:13:06.915Z,1.53
2018-12-12T12:15:47.949Z,1.60
2018-12-12T12:18:22.328Z,1.43
2018-12-12T12:21:07.134Z,1.70
2018-12-12T12:23:51.272Z,1.47
2018-12-12T12:26:30.975Z,1.40
2018-12-12T12:29:12.722Z,1.37
2018-12-12T12:31:47.578Z,2.60
2018-12-12T12:34:22.043Z,2.40
2018-12-12T12:36:56.775Z,2.10
2018-12-12T12:39:31.201Z,2.10
2018-12-12T12:42:06.018Z,2.63
2018-12-12T12:44:40.493Z,2.97
2018-12-12T12:47:15.679Z,2.60
2018-12-12T12:49:50.169Z,3.70
2018-12-12T12:52:24.733Z,2.73
2018-12-12T12:54:59.573Z,2.93
2018-12-12T12:57:34.381Z,9.40
2018-12-12T13:00:09.505Z,32.90
2018-12-12T13:02:44.577Z,107.47
2018-12-12T13:05:19.495Z,132.00
2018-12-12T13:07:54.243Z,135.30
2018-12-12T13:10:28.535Z,151.40
2018-12-12T13:13:03.988Z,141.37
2018-12-12T13:15:39.550Z,134.47
2018-12-12T13:18:14.383Z,117.73
2018-12-12T13:20:48.794Z,111.30
2018-12-12T13:23:23.289Z,95.80
2018-12-12T13:25:58.128Z,85.07
2018-12-12T13:28:32.435Z,82.80
2018-12-12T13:31:06.644Z,76.67
2018-12-12T13:33:41.917Z,74.60
2018-12-12T13:36:16.168Z,69.13
2018-12-12T13:38:51.014Z,66.00
2018-12-12T13:41:25.326Z,63.10
2018-12-12T13:43:59.666Z,59.40
2018-12-12T13:46:34.225Z,62.13
2018-12-12T13:49:09.151Z,64.10
2018-12-12T13:51:43.614Z,61.57
2018-12-12T13:54:18.068Z,61.50
2018-12-12T13:56:52.751Z,61.80
2018-12-12T13:59:27.531Z,62.50
2018-12-12T14:02:01.894Z,61.90
2018-12-12T14:04:36.520Z,62.10
2018-12-12T14:07:11.730Z,61.57
2018-12-12T14:09:46.461Z,60.40
2018-12-12T14:12:21.206Z,61.10
2018-12-12T14:14:56.077Z,62.20
2018-12-12T14:17:30.926Z,62.07
2018-12-12T14:20:07.140Z,61.00
2018-12-12T14:22:41.527Z,60.47
2018-12-12T14:25:16.018Z,59.30
2018-12-12T14:27:51.614Z,56.77
2018-12-12T14:30:26.347Z,55.23
2018-12-12T14:33:01.273Z,55.00
2018-12-12T14:35:36.105Z,58.83
2018-12-12T14:38:10.922Z,55.93
2018-12-12T14:40:46.000Z,56.10
2018-12-12T14:43:20.507Z,57.50
2018-12-12T14:45:54.872Z,52.77
2018-12-12T14:48:30.376Z,52.60
2018-12-12T14:51:05.072Z,55.07
2018-12-12T14:53:39.907Z,53.37
2018-12-12T14:56:14.741Z,54.00
2018-12-12T14:58:49.578Z,49.83
2018-12-12T15:01:24.301Z,52.33
2018-12-12T15:03:59.237Z,51.87
2018-12-12T15:06:34.045Z,49.73
2018-12-12T15:09:08.426Z,49.60
2018-12-12T15:11:43.357Z,49.03
2018-12-12T15:14:17.939Z,48.50
2018-12-12T15:16:53.077Z,45.63
2018-12-12T15:19:27.810Z,45.30
2018-12-12T15:22:03.902Z,46.73
2018-12-12T15:24:38.248Z,46.17
2018-12-12T15:27:12.701Z,42.70
2018-12-12T15:29:47.423Z,43.23
2018-12-12T15:32:22.354Z,41.60
2018-12-12T15:34:56.693Z,42.13
2018-12-12T15:37:31.167Z,41.77
2018-12-12T15:40:06.877Z,42.40
2018-12-12T15:42:41.689Z,42.33
2018-12-12T15:45:16.520Z,41.07
2018-12-12T15:47:51.296Z,41.60
2018-12-12T15:50:26.074Z,40.50
2018-12-12T15:53:01.007Z,38.90
2018-12-12T15:55:35.530Z,40.50
2018-12-12T15:58:10.668Z,39.30
2018-12-12T16:00:45.126Z,39.77
2018-12-12T16:03:19.778Z,35.87
2018-12-12T16:05:54.079Z,34.47
2018-12-12T16:08:28.422Z,35.37
2018-12-12T16:11:08.301Z,36.60
2018-12-12T16:13:39.664Z,35.60
2018-12-12T16:16:14.444Z,38.93
2018-12-12T16:18:49.296Z,33.87
2018-12-12T16:21:24.686Z,31.73
2018-12-12T16:23:59.095Z,35.80
2018-12-12T16:26:34.095Z,33.67
2018-12-12T16:29:08.636Z,32.47
2018-12-12T16:31:43.075Z,29.57
2018-12-12T16:34:17.681Z,32.10
2018-12-12T16:36:52.402Z,31.03
2018-12-12T16:39:26.726Z,30.53
2018-12-12T16:42:01.555Z,29.33
2018-12-12T16:44:35.915Z,29.00
2018-12-12T16:47:10.594Z,28.17
2018-12-12T16:49:45.422Z,28.43
2018-12-12T16:52:19.865Z,26.53
2018-12-12T16:54:54.975Z,25.40
2018-12-12T16:57:29.299Z,26.03
2018-12-12T17:00:07.208Z,26.60
2018-12-12T17:02:41.921Z,26.63
2018-12-12T17:05:16.845Z,24.53
2018-12-12T17:07:51.672Z,26.20
2018-12-12T17:10:26.228Z,24.73
2018-12-12T17:13:00.726Z,24.70
2018-12-12T17:15:35.561Z,24.47
2018-12-12T17:18:10.081Z,23.27
2018-12-12T17:20:44.421Z,24.77
2018-12-12T17:23:18.818Z,23.60
2018-12-12T17:25:53.593Z,23.53
2018-12-12T17:28:27.954Z,21.73
2018-12-12T17:31:02.715Z,21.07
2018-12-12T17:33:37.474Z,22.20
2018-12-12T17:36:12.647Z,21.23
2018-12-12T17:38:47.072Z,21.70
2018-12-12T17:41:21.685Z,20.40
2018-12-12T17:43:56.862Z,21.27
2018-12-12T17:46:31.676Z,20.40
2018-12-12T17:49:06.648Z,21.13
2018-12-12T17:51:41.349Z,19.93
2018-12-12T17:54:15.898Z,25.63
2018-12-12T17:56:50.165Z,27.40
2018-12-12T17:59:25.220Z,25.50
2018-12-12T18:01:59.724Z,23.00
2018-12-12T18:04:35.124Z,20.90
2018-12-12T18:07:10.152Z,21.70
2018-12-12T18:09:44.813Z,21.17
2018-12-12T18:12:19.263Z,20.10
2018-12-12T18:14:53.863Z,18.90
2018-12-12T18:17:28.320Z,18.77
2018-12-12T18:20:02.651Z,17.37
2018-12-12T18:22:37.085Z,17.70
2018-12-12T18:25:11.676Z,18.80
2018-12-12T18:27:46.532Z,17.20
2018-12-12T18:30:21.345Z,14.93
2018-12-12T18:32:56.477Z,15.70
2018-12-12T18:35:31.644Z,15.60
2018-12-12T18:38:06.099Z,14.63
2018-12-12T18:40:40.661Z,14.17
2018-12-12T18:43:15.788Z,13.13
2018-12-12T18:45:50.337Z,14.87
2018-12-12T18:48:24.726Z,13.60
2018-12-12T18:50:58.963Z,11.93
2018-12-12T18:53:33.196Z,11.63
2018-12-12T18:56:07.629Z,10.97
2018-12-12T18:58:42.013Z,10.40
2018-12-12T19:01:16.445Z,11.57
2018-12-12T19:03:50.867Z,9.73
2018-12-12T19:06:25.687Z,10.50
2018-12-12T19:09:00.442Z,11.20
2018-12-12T19:11:35.187Z,9.20
2018-12-12T19:14:10.013Z,8.90
2018-12-12T19:16:44.617Z,9.77
2018-12-12T19:19:19.041Z,8.47
2018-12-12T19:21:53.653Z,8.30
2018-12-12T19:24:29.021Z,8.90
2018-12-12T19:27:03.353Z,7.63
2018-12-12T19:29:38.146Z,8.03
2018-12-12T19:32:13.001Z,8.50
2018-12-12T19:34:49.901Z,6.90
2018-12-12T19:37:25.009Z,7.33
2018-12-12T19:39:59.253Z,8.10
2018-12-12T19:42:34.162Z,7.20
2018-12-12T19:45:09.241Z,6.87
2018-12-12T19:47:43.806Z,7.23
2018-12-12T19:50:18.593Z,6.00
2018-12-12T19:52:53.287Z,6.10
2018-12-12T19:55:28.035Z,6.70
2018-12-12T19:58:02.525Z,7.93
2018-12-12T20:00:37.277Z,6.60
2018-12-12T20:03:12.410Z,5.67
2018-12-12T20:05:47.030Z,7.03
2018-12-12T20:08:21.541Z,5.37
2018-12-12T20:10:55.897Z,5.90
2018-12-12T20:13:30.254Z,5.60
2018-12-12T20:16:04.688Z,4.70
2018-12-12T20:18:38.943Z,4.80
2018-12-12T20:21:13.494Z,4.57
2018-12-12T20:23:48.611Z,4.70
2018-12-12T20:26:23.291Z,4.50
2018-12-12T20:28:58.487Z,5.30
2018-12-12T20:31:32.839Z,4.63
2018-12-12T20:34:07.599Z,4.23
2018-12-12T20:36:41.859Z,4.50
2018-12-12T20:39:16.719Z,3.93
2018-12-12T20:41:51.583Z,5.03
2018-12-12T20:44:26.626Z,3.70
2018-12-12T20:47:01.749Z,3.83
2018-12-12T20:49:36.072Z,4.43
2018-12-12T20:52:11.128Z,3.70
2018-12-12T20:54:45.731Z,3.80
2018-12-12T20:57:20.792Z,3.97
2018-12-12T20:59:55.592Z,3.70
2018-12-12T21:02:30.134Z,4.17
2018-12-12T21:05:05.537Z,4.60
2018-12-12T21:07:40.091Z,4.37
2018-12-12T21:10:14.667Z,3.50
2018-12-12T21:12:49.014Z,3.53
2018-12-12T21:15:24.321Z,4.13
2018-12-12T21:17:59.661Z,4.20
2018-12-12T21:20:34.183Z,4.23
2018-12-12T21:23:08.422Z,4.07
2018-12-12T21:25:43.789Z,4.57
2018-12-12T21:28:19.063Z,3.80
2018-12-12T21:30:53.915Z,4.20
2018-12-12T21:33:28.773Z,4.60
2018-12-12T21:36:03.191Z,3.57
2018-12-12T21:38:37.801Z,4.00
2018-12-12T21:41:12.752Z,3.73
2018-12-12T21:43:47.818Z,3.80
2018-12-12T21:46:22.643Z,4.13
2018-12-12T21:48:57.537Z,3.93
2018-12-12T21:51:32.266Z,3.97
2018-12-12T21:54:06.788Z,4.03
2018-12-12T21:56:41.395Z,3.90
2018-12-12T21:59:15.826Z,4.50
2018-12-12T22:01:50.558Z,4.00
2018-12-12T22:04:24.860Z,4.30
2018-12-12T22:06:59.702Z,3.90
2018-12-12T22:09:34.408Z,3.80
2018-12-12T22:12:08.755Z,4.50
2018-12-12T22:14:43.568Z,4.03
2018-12-12T22:17:17.950Z,3.87
2018-12-12T22:19:52.582Z,3.77
2018-12-12T22:22:28.058Z,4.40
2018-12-12T22:25:02.413Z,3.37
2018-12-12T22:27:37.077Z,3.47
2018-12-12T22:30:11.789Z,3.73
2018-12-12T22:32:46.662Z,2.93
2018-12-12T22:35:21.610Z,4.17
2018-12-12T22:37:56.341Z,3.87
2018-12-12T22:40:31.174Z,3.30
2018-12-12T22:43:06.090Z,3.57
2018-12-12T22:45:40.923Z,3.53
2018-12-12T22:48:20.569Z,3.43
2018-12-12T22:50:52.344Z,3.03
2018-12-12T22:53:26.543Z,3.50
2018-12-12T22:56:01.390Z,3.40
2018-12-12T22:58:36.288Z,3.67
2018-12-12T23:01:12.703Z,2.97
2018-12-12T23:03:47.799Z,3.13
2018-12-12T23:06:22.166Z,2.70
2018-12-12T23:08:56.468Z,3.10
2018-12-12T23:11:30.948Z,2.83
2018-12-12T23:14:05.793Z,3.20
2018-12-12T23:16:40.126Z,2.90
2018-12-12T23:19:14.946Z,2.80
2018-12-12T23:21:49.403Z,2.63
2018-12-12T23:24:25.224Z,3.10
2018-12-12T23:27:00.192Z,2.60
2018-12-12T23:29:34.576Z,2.80
2018-12-12T23:32:09.300Z,2.23
2018-12-12T23:34:44.285Z,2.20
2018-12-12T23:37:19.047Z,3.00
2018-12-12T23:39:53.575Z,2.70
2018-12-12T23:42:28.326Z,2.57
2018-12-12T23:45:02.600Z,3.10
2018-12-12T23:47:36.904Z,2.47
2018-12-12T23:50:11.326Z,2.40
2018-12-12T23:52:45.894Z,2.57
2018-12-12T23:55:20.236Z,2.70
2018-12-12T23:57:55.107Z,2.10
